sensor_id;sensor_type;location;lat;lon;timestamp;temperature;humidity
7562;DHT22;3822;48.784;9.174;2022-08-01T00:02:16;26.40;45.70
7562;DHT22;3822;48.784;9.174;2022-08-01T00:04:43;26.30;45.80
7562;DHT22;3822;48.784;9.174;2022-08-01T00:07:09;26.30;46.00
7562;DHT22;3822;48.784;9.174;2022-08-01T00:09:36;26.30;46.10
7562;DHT22;3822;48.784;9.174;2022-08-01T00:12:02;26.30;46.40
7562;DHT22;3822;48.784;9.174;2022-08-01T00:14:30;26.20;46.40
7562;DHT22;3822;48.784;9.174;2022-08-01T00:16:57;26.20;46.50
7562;DHT22;3822;48.784;9.174;2022-08-01T00:19:23;26.10;46.60
7562;DHT22;3822;48.784;9.174;2022-08-01T00:21:50;26.10;46.70
7562;DHT22;3822;48.784;9.174;2022-08-01T00:24:17;26.10;47.10
7562;DHT22;3822;48.784;9.174;2022-08-01T00:26:43;26.00;47.10
7562;DHT22;3822;48.784;9.174;2022-08-01T00:29:10;26.00;47.30
7562;DHT22;3822;48.784;9.174;2022-08-01T00:31:36;26.00;47.40
7562;DHT22;3822;48.784;9.174;2022-08-01T00:34:03;26.00;47.40
7562;DHT22;3822;48.784;9.174;2022-08-01T00:36:29;26.00;47.60
7562;DHT22;3822;48.784;9.174;2022-08-01T00:38:56;25.90;47.60
7562;DHT22;3822;48.784;9.174;2022-08-01T00:41:22;25.90;47.70
7562;DHT22;3822;48.784;9.174;2022-08-01T00:43:49;26.00;47.90
7562;DHT22;3822;48.784;9.174;2022-08-01T00:46:15;25.90;47.90
7562;DHT22;3822;48.784;9.174;2022-08-01T00:48:42;25.90;48.00
7562;DHT22;3822;48.784;9.174;2022-08-01T00:51:09;25.90;48.20
7562;DHT22;3822;48.784;9.174;2022-08-01T00:53:36;25.80;48.30
7562;DHT22;3822;48.784;9.174;2022-08-01T00:56:03;25.80;48.50
7562;DHT22;3822;48.784;9.174;2022-08-01T00:58:30;25.80;48.70
7562;DHT22;3822;48.784;9.174;2022-08-01T01:00:59;25.80;48.90
7562;DHT22;3822;48.784;9.174;2022-08-01T01:03:26;25.70;48.90
7562;DHT22;3822;48.784;9.174;2022-08-01T01:06:13;25.70;49.00
7562;DHT22;3822;48.784;9.174;2022-08-01T01:09:12;25.70;49.30
7562;DHT22;3822;48.784;9.174;2022-08-01T01:14:56;25.70;49.70
7562;DHT22;3822;48.784;9.174;2022-08-01T01:17:31;25.60;49.90
7562;DHT22;3822;48.784;9.174;2022-08-01T01:20:09;25.50;50.10
7562;DHT22;3822;48.784;9.174;2022-08-01T01:25:38;25.50;50.50
7562;DHT22;3822;48.784;9.174;2022-08-01T01:28:33;25.50;50.60
7562;DHT22;3822;48.784;9.174;2022-08-01T01:31:21;25.50;50.90
7562;DHT22;3822;48.784;9.174;2022-08-01T01:33:51;25.40;51.00
7562;DHT22;3822;48.784;9.174;2022-08-01T01:36:19;25.40;51.20
7562;DHT22;3822;48.784;9.174;2022-08-01T01:38:48;25.40;51.30
7562;DHT22;3822;48.784;9.174;2022-08-01T01:41:17;25.30;52.00
7562;DHT22;3822;48.784;9.174;2022-08-01T01:43:46;25.30;51.40
7562;DHT22;3822;48.784;9.174;2022-08-01T01:46:16;25.30;51.50
7562;DHT22;3822;48.784;9.174;2022-08-01T01:48:45;25.30;51.70
7562;DHT22;3822;48.784;9.174;2022-08-01T01:51:13;25.30;51.80
7562;DHT22;3822;48.784;9.174;2022-08-01T01:53:41;25.20;51.90
7562;DHT22;3822;48.784;9.174;2022-08-01T01:56:09;25.20;51.90
7562;DHT22;3822;48.784;9.174;2022-08-01T01:58:38;25.20;52.10
7562;DHT22;3822;48.784;9.174;2022-08-01T02:01:06;25.20;52.20
7562;DHT22;3822;48.784;9.174;2022-08-01T02:03:34;25.20;52.30
7562;DHT22;3822;48.784;9.174;2022-08-01T02:06:03;25.10;52.40
7562;DHT22;3822;48.784;9.174;2022-08-01T02:08:31;25.10;52.60
7562;DHT22;3822;48.784;9.174;2022-08-01T02:10:59;25.10;53.40
7562;DHT22;3822;48.784;9.174;2022-08-01T02:13:55;25.00;52.80
7562;DHT22;3822;48.784;9.174;2022-08-01T02:16:27;25.00;53.00
7562;DHT22;3822;48.784;9.174;2022-08-01T02:18:55;25.00;53.20
7562;DHT22;3822;48.784;9.174;2022-08-01T02:21:30;24.90;53.30
7562;DHT22;3822;48.784;9.174;2022-08-01T02:24:06;24.90;53.50
7562;DHT22;3822;48.784;9.174;2022-08-01T02:26:39;24.90;53.70
7562;DHT22;3822;48.784;9.174;2022-08-01T02:29:10;24.90;53.90
7562;DHT22;3822;48.784;9.174;2022-08-01T02:31:48;24.80;53.90
7562;DHT22;3822;48.784;9.174;2022-08-01T02:34:17;24.70;54.00
7562;DHT22;3822;48.784;9.174;2022-08-01T02:36:46;24.70;54.30
7562;DHT22;3822;48.784;9.174;2022-08-01T02:39:16;24.70;54.50
7562;DHT22;3822;48.784;9.174;2022-08-01T02:41:48;24.60;54.60
7562;DHT22;3822;48.784;9.174;2022-08-01T02:44:24;24.60;54.80
7562;DHT22;3822;48.784;9.174;2022-08-01T02:46:57;24.60;54.90
7562;DHT22;3822;48.784;9.174;2022-08-01T02:49:33;24.60;55.10
7562;DHT22;3822;48.784;9.174;2022-08-01T02:52:06;24.50;55.20
7562;DHT22;3822;48.784;9.174;2022-08-01T02:54:34;24.50;55.40
7562;DHT22;3822;48.784;9.174;2022-08-01T02:57:04;24.50;55.60
7562;DHT22;3822;48.784;9.174;2022-08-01T02:59:34;24.50;55.80
7562;DHT22;3822;48.784;9.174;2022-08-01T03:02:04;24.40;55.90
7562;DHT22;3822;48.784;9.174;2022-08-01T03:04:33;24.40;56.10
7562;DHT22;3822;48.784;9.174;2022-08-01T03:07:03;24.30;56.30
7562;DHT22;3822;48.784;9.174;2022-08-01T03:09:35;24.30;56.50
7562;DHT22;3822;48.784;9.174;2022-08-01T03:12:07;24.30;56.80
7562;DHT22;3822;48.784;9.174;2022-08-01T03:14:39;24.30;57.00
7562;DHT22;3822;48.784;9.174;2022-08-01T03:17:07;24.30;57.10
7562;DHT22;3822;48.784;9.174;2022-08-01T03:19:35;24.30;57.30
7562;DHT22;3822;48.784;9.174;2022-08-01T03:22:08;24.20;57.50
7562;DHT22;3822;48.784;9.174;2022-08-01T03:24:39;25.30;58.50
7562;DHT22;3822;48.784;9.174;2022-08-01T03:27:08;24.20;57.80
7562;DHT22;3822;48.784;9.174;2022-08-01T03:29:36;24.10;58.50
7562;DHT22;3822;48.784;9.174;2022-08-01T03:32:04;24.30;58.70
7562;DHT22;3822;48.784;9.174;2022-08-01T03:34:32;24.00;58.20
7562;DHT22;3822;48.784;9.174;2022-08-01T03:37:47;24.00;58.40
7562;DHT22;3822;48.784;9.174;2022-08-01T03:40:00;24.00;58.60
7562;DHT22;3822;48.784;9.174;2022-08-01T03:42:33;24.00;58.80
7562;DHT22;3822;48.784;9.174;2022-08-01T03:45:13;23.90;59.00
7562;DHT22;3822;48.784;9.174;2022-08-01T03:47:43;23.90;59.20
7562;DHT22;3822;48.784;9.174;2022-08-01T03:50:12;23.80;59.40
7562;DHT22;3822;48.784;9.174;2022-08-01T03:52:41;23.70;59.40
7562;DHT22;3822;48.784;9.174;2022-08-01T03:55:11;23.70;59.70
7562;DHT22;3822;48.784;9.174;2022-08-01T03:57:39;23.70;59.80
7562;DHT22;3822;48.784;9.174;2022-08-01T04:00:06;23.60;59.80
7562;DHT22;3822;48.784;9.174;2022-08-01T04:02:35;23.60;60.00
7562;DHT22;3822;48.784;9.174;2022-08-01T04:05:03;23.60;60.10
7562;DHT22;3822;48.784;9.174;2022-08-01T04:07:32;23.60;60.30
7562;DHT22;3822;48.784;9.174;2022-08-01T04:10:02;23.50;60.40
7562;DHT22;3822;48.784;9.174;2022-08-01T04:12:30;23.50;60.50
7562;DHT22;3822;48.784;9.174;2022-08-01T04:14:56;23.50;60.70
7562;DHT22;3822;48.784;9.174;2022-08-01T04:17:23;23.50;61.00
7562;DHT22;3822;48.784;9.174;2022-08-01T04:19:49;23.40;61.10
7562;DHT22;3822;48.784;9.174;2022-08-01T04:22:16;23.40;61.30
7562;DHT22;3822;48.784;9.174;2022-08-01T04:24:47;23.40;61.50
7562;DHT22;3822;48.784;9.174;2022-08-01T04:27:21;23.40;61.70
7562;DHT22;3822;48.784;9.174;2022-08-01T04:29:51;23.40;61.80
7562;DHT22;3822;48.784;9.174;2022-08-01T04:32:21;23.40;62.10
7562;DHT22;3822;48.784;9.174;2022-08-01T04:34:49;23.40;62.20
7562;DHT22;3822;48.784;9.174;2022-08-01T04:37:17;23.50;62.30
7562;DHT22;3822;48.784;9.174;2022-08-01T04:39:46;23.50;62.10
7562;DHT22;3822;48.784;9.174;2022-08-01T04:42:14;23.50;62.20
7562;DHT22;3822;48.784;9.174;2022-08-01T04:44:41;23.50;62.40
7562;DHT22;3822;48.784;9.174;2022-08-01T04:47:09;23.50;62.70
7562;DHT22;3822;48.784;9.174;2022-08-01T04:49:36;23.50;62.80
7562;DHT22;3822;48.784;9.174;2022-08-01T04:52:03;23.00;62.80
7562;DHT22;3822;48.784;9.174;2022-08-01T04:54:34;23.40;63.30
7562;DHT22;3822;48.784;9.174;2022-08-01T04:57:05;23.40;63.50
7562;DHT22;3822;48.784;9.174;2022-08-01T04:59:35;23.40;63.70
7562;DHT22;3822;48.784;9.174;2022-08-01T05:02:12;23.40;63.80
7562;DHT22;3822;48.784;9.174;2022-08-01T05:04:42;23.50;64.00
7562;DHT22;3822;48.784;9.174;2022-08-01T05:07:09;23.40;64.10
7562;DHT22;3822;48.784;9.174;2022-08-01T05:09:37;23.50;64.30
7562;DHT22;3822;48.784;9.174;2022-08-01T05:12:05;23.50;64.30
7562;DHT22;3822;48.784;9.174;2022-08-01T05:14:33;23.60;64.40
7562;DHT22;3822;48.784;9.174;2022-08-01T05:17:02;23.60;64.40
7562;DHT22;3822;48.784;9.174;2022-08-01T05:19:31;23.70;64.50
7562;DHT22;3822;48.784;9.174;2022-08-01T05:21:59;22.70;63.50
7562;DHT22;3822;48.784;9.174;2022-08-01T05:24:36;23.80;64.60
7562;DHT22;3822;48.784;9.174;2022-08-01T05:27:04;23.90;64.70
7562;DHT22;3822;48.784;9.174;2022-08-01T05:29:32;23.90;64.70
7562;DHT22;3822;48.784;9.174;2022-08-01T05:31:59;24.00;65.00
7562;DHT22;3822;48.784;9.174;2022-08-01T05:34:26;24.00;65.20
7562;DHT22;3822;48.784;9.174;2022-08-01T05:36:53;24.00;65.30
7562;DHT22;3822;48.784;9.174;2022-08-01T05:39:19;24.00;65.60
7562;DHT22;3822;48.784;9.174;2022-08-01T05:41:46;24.00;65.70
7562;DHT22;3822;48.784;9.174;2022-08-01T05:44:13;24.10;65.90
7562;DHT22;3822;48.784;9.174;2022-08-01T05:46:39;24.10;66.20
7562;DHT22;3822;48.784;9.174;2022-08-01T05:49:06;24.10;66.20
7562;DHT22;3822;48.784;9.174;2022-08-01T05:51:33;24.20;66.50
7562;DHT22;3822;48.784;9.174;2022-08-01T05:53:59;24.20;66.60
7562;DHT22;3822;48.784;9.174;2022-08-01T05:56:26;24.20;66.90
7562;DHT22;3822;48.784;9.174;2022-08-01T05:58:52;24.20;67.00
7562;DHT22;3822;48.784;9.174;2022-08-01T06:01:19;24.20;67.20
7562;DHT22;3822;48.784;9.174;2022-08-01T06:03:46;24.30;67.30
7562;DHT22;3822;48.784;9.174;2022-08-01T06:06:13;24.30;67.50
7562;DHT22;3822;48.784;9.174;2022-08-01T06:08:42;24.30;67.60
7562;DHT22;3822;48.784;9.174;2022-08-01T06:11:09;24.30;67.80
7562;DHT22;3822;48.784;9.174;2022-08-01T06:13:35;24.40;67.80
7562;DHT22;3822;48.784;9.174;2022-08-01T06:16:02;24.40;67.90
7562;DHT22;3822;48.784;9.174;2022-08-01T06:18:29;24.40;68.00
7562;DHT22;3822;48.784;9.174;2022-08-01T06:20:55;24.50;68.10
7562;DHT22;3822;48.784;9.174;2022-08-01T06:23:22;24.50;68.10
7562;DHT22;3822;48.784;9.174;2022-08-01T06:25:52;24.60;68.40
7562;DHT22;3822;48.784;9.174;2022-08-01T06:28:19;24.70;68.40
7562;DHT22;3822;48.784;9.174;2022-08-01T06:30:45;24.80;68.30
7562;DHT22;3822;48.784;9.174;2022-08-01T06:33:12;24.90;68.20
7562;DHT22;3822;48.784;9.174;2022-08-01T06:35:38;24.90;68.20
7562;DHT22;3822;48.784;9.174;2022-08-01T06:38:05;24.90;68.10
7562;DHT22;3822;48.784;9.174;2022-08-01T06:40:32;25.00;68.10
7562;DHT22;3822;48.784;9.174;2022-08-01T06:42:58;25.00;68.70
7562;DHT22;3822;48.784;9.174;2022-08-01T06:45:25;25.10;67.80
7562;DHT22;3822;48.784;9.174;2022-08-01T06:47:52;25.20;67.80
7562;DHT22;3822;48.784;9.174;2022-08-01T06:50:19;25.20;67.60
7562;DHT22;3822;48.784;9.174;2022-08-01T06:52:45;25.30;67.50
7562;DHT22;3822;48.784;9.174;2022-08-01T06:55:12;25.30;67.40
7562;DHT22;3822;48.784;9.174;2022-08-01T06:57:49;25.50;67.30
7562;DHT22;3822;48.784;9.174;2022-08-01T07:00:17;25.60;67.10
7562;DHT22;3822;48.784;9.174;2022-08-01T07:02:52;25.60;66.70
7562;DHT22;3822;48.784;9.174;2022-08-01T07:05:20;25.70;66.50
7562;DHT22;3822;48.784;9.174;2022-08-01T07:07:46;25.70;66.40
7562;DHT22;3822;48.784;9.174;2022-08-01T07:10:13;25.70;66.40
7562;DHT22;3822;48.784;9.174;2022-08-01T07:12:40;25.70;66.30
7562;DHT22;3822;48.784;9.174;2022-08-01T07:15:08;25.80;66.20
7562;DHT22;3822;48.784;9.174;2022-08-01T07:17:40;25.80;66.10
7562;DHT22;3822;48.784;9.174;2022-08-01T07:20:09;25.70;66.00
7562;DHT22;3822;48.784;9.174;2022-08-01T07:22:38;25.80;66.10
7562;DHT22;3822;48.784;9.174;2022-08-01T07:25:05;25.70;66.10
7562;DHT22;3822;48.784;9.174;2022-08-01T07:27:32;25.80;66.10
7562;DHT22;3822;48.784;9.174;2022-08-01T07:30:01;25.80;66.20
7562;DHT22;3822;48.784;9.174;2022-08-01T07:32:27;25.90;66.10
7562;DHT22;3822;48.784;9.174;2022-08-01T07:34:55;26.00;65.80
7562;DHT22;3822;48.784;9.174;2022-08-01T07:37:22;26.10;65.60
7562;DHT22;3822;48.784;9.174;2022-08-01T07:39:50;26.20;65.40
7562;DHT22;3822;48.784;9.174;2022-08-01T07:42:16;26.20;65.30
7562;DHT22;3822;48.784;9.174;2022-08-01T07:44:43;26.40;65.00
7562;DHT22;3822;48.784;9.174;2022-08-01T07:47:09;26.40;64.60
7562;DHT22;3822;48.784;9.174;2022-08-01T07:49:36;26.40;64.40
7562;DHT22;3822;48.784;9.174;2022-08-01T07:52:03;26.40;64.30
7562;DHT22;3822;48.784;9.174;2022-08-01T07:54:33;26.40;64.30
7562;DHT22;3822;48.784;9.174;2022-08-01T07:57:01;26.50;64.30
7562;DHT22;3822;48.784;9.174;2022-08-01T07:59:28;26.60;63.90
7562;DHT22;3822;48.784;9.174;2022-08-01T08:01:55;26.60;63.70
7562;DHT22;3822;48.784;9.174;2022-08-01T08:04:22;26.70;63.60
7562;DHT22;3822;48.784;9.174;2022-08-01T08:06:48;26.70;63.50
7562;DHT22;3822;48.784;9.174;2022-08-01T08:09:15;26.70;63.50
7562;DHT22;3822;48.784;9.174;2022-08-01T08:11:46;26.70;63.40
7562;DHT22;3822;48.784;9.174;2022-08-01T08:14:13;26.70;63.40
7562;DHT22;3822;48.784;9.174;2022-08-01T08:16:39;26.70;63.40
7562;DHT22;3822;48.784;9.174;2022-08-01T08:19:06;26.70;63.30
7562;DHT22;3822;48.784;9.174;2022-08-01T08:21:32;26.80;63.30
7562;DHT22;3822;48.784;9.174;2022-08-01T08:23:59;26.70;63.00
7562;DHT22;3822;48.784;9.174;2022-08-01T08:26:44;26.70;62.80
7562;DHT22;3822;48.784;9.174;2022-08-01T08:29:11;26.80;62.90
7562;DHT22;3822;48.784;9.174;2022-08-01T08:31:37;26.80;62.80
7562;DHT22;3822;48.784;9.174;2022-08-01T08:34:04;26.80;62.80
7562;DHT22;3822;48.784;9.174;2022-08-01T08:36:30;26.80;62.70
7562;DHT22;3822;48.784;9.174;2022-08-01T08:38:58;26.90;62.70
7562;DHT22;3822;48.784;9.174;2022-08-01T08:41:35;26.90;62.70
7562;DHT22;3822;48.784;9.174;2022-08-01T08:44:03;26.90;62.80
7562;DHT22;3822;48.784;9.174;2022-08-01T08:46:31;26.90;62.90
7562;DHT22;3822;48.784;9.174;2022-08-01T08:49:00;26.90;62.80
7562;DHT22;3822;48.784;9.174;2022-08-01T08:51:30;26.90;63.00
7562;DHT22;3822;48.784;9.174;2022-08-01T08:53:58;27.00;63.10
7562;DHT22;3822;48.784;9.174;2022-08-01T08:56:25;27.00;62.90
7562;DHT22;3822;48.784;9.174;2022-08-01T08:58:55;27.10;62.70
7562;DHT22;3822;48.784;9.174;2022-08-01T09:01:23;27.10;62.80
7562;DHT22;3822;48.784;9.174;2022-08-01T09:03:49;27.10;62.90
7562;DHT22;3822;48.784;9.174;2022-08-01T09:06:17;27.10;62.70
7562;DHT22;3822;48.784;9.174;2022-08-01T09:08:43;27.10;62.50
7562;DHT22;3822;48.784;9.174;2022-08-01T09:11:10;27.20;62.30
7562;DHT22;3822;48.784;9.174;2022-08-01T09:13:36;27.20;62.10
7562;DHT22;3822;48.784;9.174;2022-08-01T09:16:04;27.20;62.00
7562;DHT22;3822;48.784;9.174;2022-08-01T09:18:39;27.20;61.80
7562;DHT22;3822;48.784;9.174;2022-08-01T09:21:21;27.30;61.90
7562;DHT22;3822;48.784;9.174;2022-08-01T09:23:52;27.20;61.80
7562;DHT22;3822;48.784;9.174;2022-08-01T09:26:28;27.30;61.70
7562;DHT22;3822;48.784;9.174;2022-08-01T09:28:57;27.40;62.10
7562;DHT22;3822;48.784;9.174;2022-08-01T09:31:27;27.30;61.20
7562;DHT22;3822;48.784;9.174;2022-08-01T09:34:01;27.40;61.30
7562;DHT22;3822;48.784;9.174;2022-08-01T09:36:52;27.40;61.20
7562;DHT22;3822;48.784;9.174;2022-08-01T09:39:25;27.40;61.20
7562;DHT22;3822;48.784;9.174;2022-08-01T09:41:55;27.40;61.40
7562;DHT22;3822;48.784;9.174;2022-08-01T09:44:44;27.40;61.30
7562;DHT22;3822;48.784;9.174;2022-08-01T09:47:12;27.40;61.30
7562;DHT22;3822;48.784;9.174;2022-08-01T09:49:40;27.40;61.30
7562;DHT22;3822;48.784;9.174;2022-08-01T09:52:16;27.40;61.20
7562;DHT22;3822;48.784;9.174;2022-08-01T09:54:55;27.50;61.40
7562;DHT22;3822;48.784;9.174;2022-08-01T09:57:23;27.50;61.20
7562;DHT22;3822;48.784;9.174;2022-08-01T09:59:53;27.50;61.10
7562;DHT22;3822;48.784;9.174;2022-08-01T10:04:58;27.60;61.30
7562;DHT22;3822;48.784;9.174;2022-08-01T10:07:25;27.70;60.80
7562;DHT22;3822;48.784;9.174;2022-08-01T10:09:52;27.70;60.70
7562;DHT22;3822;48.784;9.174;2022-08-01T10:12:20;27.70;60.50
7562;DHT22;3822;48.784;9.174;2022-08-01T10:14:51;27.80;60.20
7562;DHT22;3822;48.784;9.174;2022-08-01T10:17:20;27.80;60.20
7562;DHT22;3822;48.784;9.174;2022-08-01T10:19:51;27.70;60.20
7562;DHT22;3822;48.784;9.174;2022-08-01T10:22:23;27.70;60.30
7562;DHT22;3822;48.784;9.174;2022-08-01T10:24:54;27.70;60.40
7562;DHT22;3822;48.784;9.174;2022-08-01T10:27:22;27.70;60.50
7562;DHT22;3822;48.784;9.174;2022-08-01T10:29:59;27.70;60.60
7562;DHT22;3822;48.784;9.174;2022-08-01T10:32:30;27.70;60.10
7562;DHT22;3822;48.784;9.174;2022-08-01T10:34:58;27.80;59.80
7562;DHT22;3822;48.784;9.174;2022-08-01T10:37:25;27.80;59.50
7562;DHT22;3822;48.784;9.174;2022-08-01T10:39:53;27.80;59.50
7562;DHT22;3822;48.784;9.174;2022-08-01T10:42:21;27.80;59.60
7562;DHT22;3822;48.784;9.174;2022-08-01T10:44:48;27.90;59.60
7562;DHT22;3822;48.784;9.174;2022-08-01T10:47:18;27.90;59.20
7562;DHT22;3822;48.784;9.174;2022-08-01T10:50:21;27.90;59.20
7562;DHT22;3822;48.784;9.174;2022-08-01T10:53:19;28.00;58.80
7562;DHT22;3822;48.784;9.174;2022-08-01T10:58:33;27.90;58.70
7562;DHT22;3822;48.784;9.174;2022-08-01T11:01:23;27.90;58.80
7562;DHT22;3822;48.784;9.174;2022-08-01T11:04:02;28.00;58.80
7562;DHT22;3822;48.784;9.174;2022-08-01T11:09:24;28.10;58.70
7562;DHT22;3822;48.784;9.174;2022-08-01T11:12:04;28.20;58.50
7562;DHT22;3822;48.784;9.174;2022-08-01T11:20:16;28.30;57.60
7562;DHT22;3822;48.784;9.174;2022-08-01T11:30:48;28.30;57.10
7562;DHT22;3822;48.784;9.174;2022-08-01T11:33:18;28.30;57.20
7562;DHT22;3822;48.784;9.174;2022-08-01T11:41:12;28.50;56.60
7562;DHT22;3822;48.784;9.174;2022-08-01T11:44:11;28.60;56.60
7562;DHT22;3822;48.784;9.174;2022-08-01T11:52:09;28.80;55.60
7562;DHT22;3822;48.784;9.174;2022-08-01T11:54:42;28.80;55.60
7562;DHT22;3822;48.784;9.174;2022-08-01T11:57:18;28.80;55.60
7562;DHT22;3822;48.784;9.174;2022-08-01T11:59:48;28.80;55.40
7562;DHT22;3822;48.784;9.174;2022-08-01T12:02:30;28.90;55.30
7562;DHT22;3822;48.784;9.174;2022-08-01T12:05:09;28.90;55.00
7562;DHT22;3822;48.784;9.174;2022-08-01T12:07:41;29.00;55.00
7562;DHT22;3822;48.784;9.174;2022-08-01T12:12:49;29.00;54.70
7562;DHT22;3822;48.784;9.174;2022-08-01T12:15:18;29.00;54.70
7562;DHT22;3822;48.784;9.174;2022-08-01T12:17:50;29.10;54.30
7562;DHT22;3822;48.784;9.174;2022-08-01T12:20:22;29.10;53.70
7562;DHT22;3822;48.784;9.174;2022-08-01T12:22:54;29.20;53.60
7562;DHT22;3822;48.784;9.174;2022-08-01T12:25:21;29.20;53.20
7562;DHT22;3822;48.784;9.174;2022-08-01T12:27:49;29.20;52.80
7562;DHT22;3822;48.784;9.174;2022-08-01T12:30:19;29.10;52.60
7562;DHT22;3822;48.784;9.174;2022-08-01T12:32:48;29.10;52.90
7562;DHT22;3822;48.784;9.174;2022-08-01T12:35:17;29.10;53.20
7562;DHT22;3822;48.784;9.174;2022-08-01T12:37:51;29.00;53.50
7562;DHT22;3822;48.784;9.174;2022-08-01T12:40:33;29.10;53.80
7562;DHT22;3822;48.784;9.174;2022-08-01T12:43:06;29.10;54.20
7562;DHT22;3822;48.784;9.174;2022-08-01T12:45:34;29.20;54.40
7562;DHT22;3822;48.784;9.174;2022-08-01T12:48:07;29.30;54.40
7562;DHT22;3822;48.784;9.174;2022-08-01T12:50:39;29.50;54.20
7562;DHT22;3822;48.784;9.174;2022-08-01T12:53:10;29.60;53.70
7562;DHT22;3822;48.784;9.174;2022-08-01T12:55:50;29.70;53.20
7562;DHT22;3822;48.784;9.174;2022-08-01T12:58:19;29.90;52.60
7562;DHT22;3822;48.784;9.174;2022-08-01T13:00:48;29.90;52.00
7562;DHT22;3822;48.784;9.174;2022-08-01T13:03:18;29.90;51.90
7562;DHT22;3822;48.784;9.174;2022-08-01T13:08:31;30.00;51.70
7562;DHT22;3822;48.784;9.174;2022-08-01T13:11:05;30.10;51.30
7562;DHT22;3822;48.784;9.174;2022-08-01T13:13:43;30.20;52.10
7562;DHT22;3822;48.784;9.174;2022-08-01T13:16:13;30.20;51.70
7562;DHT22;3822;48.784;9.174;2022-08-01T13:18:40;30.20;51.50
7562;DHT22;3822;48.784;9.174;2022-08-01T13:29:36;30.20;51.80
7562;DHT22;3822;48.784;9.174;2022-08-01T13:32:15;30.30;51.80
7562;DHT22;3822;48.784;9.174;2022-08-01T13:34:42;30.30;51.70
7562;DHT22;3822;48.784;9.174;2022-08-01T13:37:09;30.30;51.90
7562;DHT22;3822;48.784;9.174;2022-08-01T13:39:35;30.40;51.50
7562;DHT22;3822;48.784;9.174;2022-08-01T13:42:09;30.40;51.00
7562;DHT22;3822;48.784;9.174;2022-08-01T13:44:37;30.40;50.80
7562;DHT22;3822;48.784;9.174;2022-08-01T13:47:04;30.40;50.90
7562;DHT22;3822;48.784;9.174;2022-08-01T13:49:32;30.40;50.80
7562;DHT22;3822;48.784;9.174;2022-08-01T13:51:58;30.50;51.00
7562;DHT22;3822;48.784;9.174;2022-08-01T13:54:25;30.50;50.70
7562;DHT22;3822;48.784;9.174;2022-08-01T13:56:52;30.60;50.70
7562;DHT22;3822;48.784;9.174;2022-08-01T13:59:19;30.80;50.50
7562;DHT22;3822;48.784;9.174;2022-08-01T14:01:46;30.90;50.40
7562;DHT22;3822;48.784;9.174;2022-08-01T14:04:13;30.90;50.10
7562;DHT22;3822;48.784;9.174;2022-08-01T14:06:39;31.00;49.80
7562;DHT22;3822;48.784;9.174;2022-08-01T14:09:06;31.00;49.70
7562;DHT22;3822;48.784;9.174;2022-08-01T14:11:33;31.10;49.40
7562;DHT22;3822;48.784;9.174;2022-08-01T14:14:00;31.00;49.60
7562;DHT22;3822;48.784;9.174;2022-08-01T14:16:27;31.00;49.60
7562;DHT22;3822;48.784;9.174;2022-08-01T14:18:53;31.10;49.40
7562;DHT22;3822;48.784;9.174;2022-08-01T14:21:20;31.20;49.60
7562;DHT22;3822;48.784;9.174;2022-08-01T14:23:46;31.30;49.20
7562;DHT22;3822;48.784;9.174;2022-08-01T14:26:13;31.40;49.00
7562;DHT22;3822;48.784;9.174;2022-08-01T14:28:39;31.50;48.90
7562;DHT22;3822;48.784;9.174;2022-08-01T14:31:06;31.70;48.10
7562;DHT22;3822;48.784;9.174;2022-08-01T14:33:33;31.70;47.60
7562;DHT22;3822;48.784;9.174;2022-08-01T14:36:00;31.80;47.50
7562;DHT22;3822;48.784;9.174;2022-08-01T14:38:27;31.80;46.90
7562;DHT22;3822;48.784;9.174;2022-08-01T14:40:53;31.70;47.20
7562;DHT22;3822;48.784;9.174;2022-08-01T14:43:20;31.70;47.50
7562;DHT22;3822;48.784;9.174;2022-08-01T14:45:47;31.80;47.50
7562;DHT22;3822;48.784;9.174;2022-08-01T14:48:16;31.80;47.40
7562;DHT22;3822;48.784;9.174;2022-08-01T14:50:43;32.00;47.70
7562;DHT22;3822;48.784;9.174;2022-08-01T14:53:10;32.10;47.40
7562;DHT22;3822;48.784;9.174;2022-08-01T14:55:37;32.20;46.90
7562;DHT22;3822;48.784;9.174;2022-08-01T14:58:04;32.40;46.80
7562;DHT22;3822;48.784;9.174;2022-08-01T15:00:30;32.40;46.00
7562;DHT22;3822;48.784;9.174;2022-08-01T15:02:56;32.40;46.30
7562;DHT22;3822;48.784;9.174;2022-08-01T15:05:23;32.30;46.00
7562;DHT22;3822;48.784;9.174;2022-08-01T15:07:49;32.30;46.00
7562;DHT22;3822;48.784;9.174;2022-08-01T15:10:17;32.20;45.80
7562;DHT22;3822;48.784;9.174;2022-08-01T15:12:44;32.20;45.70
7562;DHT22;3822;48.784;9.174;2022-08-01T15:15:10;32.10;45.70
7562;DHT22;3822;48.784;9.174;2022-08-01T15:17:37;32.10;45.60
7562;DHT22;3822;48.784;9.174;2022-08-01T15:20:05;32.00;45.60
7562;DHT22;3822;48.784;9.174;2022-08-01T15:22:33;32.10;45.40
7562;DHT22;3822;48.784;9.174;2022-08-01T15:25:01;32.00;45.50
7562;DHT22;3822;48.784;9.174;2022-08-01T15:27:27;32.00;45.60
7562;DHT22;3822;48.784;9.174;2022-08-01T15:29:55;32.00;45.40
7562;DHT22;3822;48.784;9.174;2022-08-01T15:32:22;32.00;45.40
7562;DHT22;3822;48.784;9.174;2022-08-01T15:34:49;32.00;45.30
7562;DHT22;3822;48.784;9.174;2022-08-01T15:37:16;32.00;45.40
7562;DHT22;3822;48.784;9.174;2022-08-01T15:39:43;31.60;45.30
7562;DHT22;3822;48.784;9.174;2022-08-01T15:42:15;31.90;45.70
7562;DHT22;3822;48.784;9.174;2022-08-01T15:44:42;31.90;45.80
7562;DHT22;3822;48.784;9.174;2022-08-01T15:47:09;31.90;45.30
7562;DHT22;3822;48.784;9.174;2022-08-01T15:49:38;31.80;45.10
7562;DHT22;3822;48.784;9.174;2022-08-01T15:52:06;31.90;45.10
7562;DHT22;3822;48.784;9.174;2022-08-01T15:54:33;31.80;44.60
7562;DHT22;3822;48.784;9.174;2022-08-01T15:57:00;31.80;44.80
7562;DHT22;3822;48.784;9.174;2022-08-01T15:59:27;31.60;44.70
7562;DHT22;3822;48.784;9.174;2022-08-01T16:01:53;31.50;44.70
7562;DHT22;3822;48.784;9.174;2022-08-01T16:04:20;31.40;44.90
7562;DHT22;3822;48.784;9.174;2022-08-01T16:06:47;31.40;45.20
7562;DHT22;3822;48.784;9.174;2022-08-01T16:09:13;31.40;45.30
7562;DHT22;3822;48.784;9.174;2022-08-01T16:11:40;31.30;45.40
7562;DHT22;3822;48.784;9.174;2022-08-01T16:14:07;31.20;45.10
7562;DHT22;3822;48.784;9.174;2022-08-01T16:16:33;31.20;45.40
7562;DHT22;3822;48.784;9.174;2022-08-01T16:19:00;31.10;45.40
7562;DHT22;3822;48.784;9.174;2022-08-01T16:21:26;31.10;45.60
7562;DHT22;3822;48.784;9.174;2022-08-01T16:23:53;31.00;45.70
7562;DHT22;3822;48.784;9.174;2022-08-01T16:26:19;31.00;45.90
7562;DHT22;3822;48.784;9.174;2022-08-01T16:28:46;31.00;46.00
7562;DHT22;3822;48.784;9.174;2022-08-01T16:31:13;30.90;46.00
7562;DHT22;3822;48.784;9.174;2022-08-01T16:33:40;30.90;45.90
7562;DHT22;3822;48.784;9.174;2022-08-01T16:36:07;30.90;45.90
7562;DHT22;3822;48.784;9.174;2022-08-01T16:38:34;30.80;46.00
7562;DHT22;3822;48.784;9.174;2022-08-01T16:41:01;30.80;46.20
7562;DHT22;3822;48.784;9.174;2022-08-01T16:43:27;30.80;46.30
7562;DHT22;3822;48.784;9.174;2022-08-01T16:45:54;30.80;46.30
7562;DHT22;3822;48.784;9.174;2022-08-01T16:48:20;30.70;46.30
7562;DHT22;3822;48.784;9.174;2022-08-01T16:50:48;30.60;46.30
7562;DHT22;3822;48.784;9.174;2022-08-01T16:53:16;30.50;46.20
7562;DHT22;3822;48.784;9.174;2022-08-01T16:55:43;30.50;46.30
7562;DHT22;3822;48.784;9.174;2022-08-01T16:58:13;30.50;46.50
7562;DHT22;3822;48.784;9.174;2022-08-01T17:00:40;30.40;46.60
7562;DHT22;3822;48.784;9.174;2022-08-01T17:03:10;30.40;46.60
7562;DHT22;3822;48.784;9.174;2022-08-01T17:05:37;30.40;46.70
7562;DHT22;3822;48.784;9.174;2022-08-01T17:08:05;30.40;46.80
7562;DHT22;3822;48.784;9.174;2022-08-01T17:10:34;30.30;46.80